X  Close Metar Aviation Weather Data     EFPO Pori Airport
Temperature
-1°C Temperature
-2°C Dewpoint
93% Humidity



Wind
4 M/S
9 MPH
14 KM/H
8 KTS



130°
SE
Current Conditions

Overcast Overcast
Pressure 988.92 (hPa) - 29.2 (inHg)
Visibility 6.2 (mile) - 10 (km)
Airport
Airport-code EFPO

Location: Pori Airport
Distance: 56 (km)

Metar:
EFPO 212350Z AUTO 13008KT 9999 OVC005 M01/M02 Q0989

Time: 22-01-2021 01:50 EET